createdAt,value
2023-04-30T00:04:24.083Z,17
2023-04-30T00:09:40.438Z,17
2023-04-30T00:14:56.819Z,15
2023-04-30T00:20:13.186Z,17
2023-04-30T00:25:29.544Z,15
2023-04-30T00:30:45.933Z,12
2023-04-30T00:36:02.288Z,13
2023-04-30T00:41:18.685Z,14
2023-04-30T00:46:35.052Z,13
2023-04-30T00:51:51.435Z,13
2023-04-30T00:57:08.555Z,14
2023-04-30T01:02:25.000Z,14
2023-04-30T01:07:41.326Z,15
2023-04-30T01:12:57.734Z,15
2023-04-30T01:18:14.106Z,14
2023-04-30T01:23:30.432Z,17
2023-04-30T01:28:46.816Z,19
2023-04-30T01:34:03.183Z,17
2023-04-30T01:39:19.606Z,16
2023-04-30T01:44:36.689Z,16
2023-04-30T01:49:53.235Z,18
2023-04-30T01:55:09.468Z,18
2023-04-30T02:00:25.838Z,17
2023-04-30T02:05:42.220Z,17
2023-04-30T02:10:58.609Z,16
2023-04-30T02:16:15.030Z,17
2023-04-30T02:21:31.364Z,19
2023-04-30T02:26:47.731Z,18
2023-04-30T02:32:04.293Z,17
2023-04-30T02:37:20.470Z,15
2023-04-30T02:42:36.834Z,15
2023-04-30T02:47:53.273Z,14
2023-04-30T02:53:09.559Z,13
2023-04-30T02:58:25.940Z,15
2023-04-30T03:03:42.317Z,15
2023-04-30T03:08:58.696Z,17
2023-04-30T03:14:15.064Z,17
2023-04-30T03:19:31.447Z,14
2023-04-30T03:24:47.828Z,18
2023-04-30T03:30:04.220Z,16
2023-04-30T03:35:20.647Z,17
2023-04-30T03:40:37.065Z,16
2023-04-30T03:45:53.480Z,17
2023-04-30T03:51:09.824Z,19
2023-04-30T03:56:26.191Z,16
2023-04-30T04:01:42.597Z,16
2023-04-30T04:06:58.942Z,15
2023-04-30T04:12:15.324Z,18
2023-04-30T04:17:31.760Z,15
2023-04-30T04:22:48.115Z,16
2023-04-30T04:28:04.462Z,17
2023-04-30T04:33:20.841Z,15
2023-04-30T04:38:37.212Z,15
2023-04-30T04:43:53.578Z,15
2023-04-30T04:49:09.972Z,18
2023-04-30T04:54:26.372Z,22
2023-04-30T04:59:42.743Z,17
2023-04-30T05:04:59.118Z,15
2023-04-30T05:10:15.495Z,18
2023-04-30T05:15:31.881Z,18
2023-04-30T05:20:48.250Z,17
2023-04-30T05:26:04.636Z,18
2023-04-30T05:31:21.286Z,18
2023-04-30T05:36:37.399Z,21
2023-04-30T05:41:53.789Z,22
2023-04-30T05:47:10.165Z,18
2023-04-30T05:52:26.577Z,21
2023-04-30T05:57:42.929Z,20
2023-04-30T06:02:59.350Z,22
2023-04-30T06:08:15.704Z,18
2023-04-30T06:13:32.070Z,15
2023-04-30T06:18:48.434Z,13
2023-04-30T06:24:04.774Z,10
2023-04-30T06:29:21.151Z,10
2023-04-30T06:34:37.730Z,8
2023-04-30T06:39:54.855Z,10
2023-04-30T06:45:11.031Z,8
2023-04-30T06:50:27.694Z,6
2023-04-30T06:55:43.702Z,6
2023-04-30T07:01:00.067Z,7
2023-04-30T07:06:16.436Z,6
2023-04-30T07:11:32.760Z,7
2023-04-30T07:16:49.063Z,7
2023-04-30T07:22:05.415Z,7
2023-04-30T07:27:21.748Z,5
2023-04-30T07:32:38.168Z,5
2023-04-30T07:37:54.422Z,4
2023-04-30T07:43:10.783Z,5
2023-04-30T07:48:27.129Z,4
2023-04-30T07:53:43.477Z,6
2023-04-30T07:58:59.849Z,11
2023-04-30T08:04:16.237Z,5
2023-04-30T08:09:32.548Z,9
2023-04-30T08:14:48.884Z,6
2023-04-30T08:20:05.239Z,12
2023-04-30T08:25:21.587Z,8
2023-04-30T08:30:37.962Z,7
2023-04-30T08:35:54.291Z,5
2023-04-30T08:41:10.638Z,6
2023-04-30T08:46:27.052Z,6
2023-04-30T08:51:43.323Z,4
2023-04-30T08:56:59.669Z,6
2023-04-30T09:02:16.022Z,3
2023-04-30T09:07:32.352Z,4
2023-04-30T09:12:48.677Z,3
2023-04-30T09:18:05.071Z,5
2023-04-30T09:23:21.360Z,6
2023-04-30T09:28:37.697Z,3
2023-04-30T09:33:54.058Z,4
2023-04-30T09:39:12.000Z,5
2023-04-30T09:44:26.702Z,4
2023-04-30T09:49:43.045Z,3
2023-04-30T09:54:59.367Z,4
2023-04-30T10:00:15.742Z,4
2023-04-30T10:05:32.057Z,4
2023-04-30T10:10:48.409Z,3
2023-04-30T10:16:04.816Z,3
2023-04-30T10:21:21.087Z,6
2023-04-30T10:26:37.425Z,3
2023-04-30T10:31:53.786Z,4
2023-04-30T10:37:10.085Z,4
2023-04-30T10:42:26.440Z,4
2023-04-30T10:47:42.820Z,4
2023-04-30T10:52:59.117Z,4
2023-04-30T10:58:15.786Z,3
2023-04-30T11:03:31.790Z,3
2023-04-30T11:08:48.132Z,4
2023-04-30T11:14:04.440Z,3
2023-04-30T11:19:20.786Z,3
2023-04-30T11:24:37.112Z,3
2023-04-30T11:29:53.844Z,3
2023-04-30T11:35:09.780Z,4
2023-04-30T11:40:26.109Z,2
2023-04-30T11:45:42.437Z,3
2023-04-30T11:50:58.772Z,2
2023-04-30T11:56:15.098Z,5
2023-04-30T12:01:31.628Z,3
2023-04-30T12:06:47.840Z,4
2023-04-30T12:12:04.096Z,2
2023-04-30T12:17:20.415Z,2
2023-04-30T12:22:36.743Z,2
2023-04-30T12:27:53.092Z,3
2023-04-30T12:33:09.396Z,2
2023-04-30T12:38:25.692Z,3
2023-04-30T12:43:41.997Z,4
2023-04-30T12:48:58.323Z,2
2023-04-30T12:54:14.627Z,3
2023-04-30T12:59:31.189Z,2
2023-04-30T13:04:47.495Z,3
2023-04-30T13:10:03.845Z,2
2023-04-30T13:15:20.163Z,2
2023-04-30T13:20:36.508Z,3
2023-04-30T13:25:52.825Z,3
2023-04-30T13:31:09.214Z,2
2023-04-30T13:36:25.489Z,3
2023-04-30T13:41:41.819Z,2
2023-04-30T13:46:58.209Z,2
2023-04-30T13:52:14.508Z,2
2023-04-30T13:57:30.792Z,2
2023-04-30T14:02:47.199Z,3
2023-04-30T14:08:03.458Z,3
2023-04-30T14:13:19.775Z,3
2023-04-30T14:18:36.124Z,3
2023-04-30T14:23:53.126Z,4
2023-04-30T14:29:09.440Z,2
2023-04-30T14:34:25.781Z,3
2023-04-30T14:39:42.097Z,3
2023-04-30T14:44:58.431Z,3
2023-04-30T14:50:14.751Z,3
2023-04-30T14:55:31.105Z,6
2023-04-30T15:00:47.446Z,3
2023-04-30T15:06:03.852Z,3
2023-04-30T15:11:20.450Z,4
2023-04-30T15:16:36.451Z,4
2023-04-30T15:21:52.772Z,3
2023-04-30T15:27:09.108Z,4
2023-04-30T15:32:25.455Z,3
2023-04-30T15:37:41.788Z,3
2023-04-30T15:42:58.135Z,3
2023-04-30T15:48:14.469Z,3
2023-04-30T15:53:30.799Z,4
2023-04-30T15:58:47.149Z,4
2023-04-30T16:04:03.776Z,3
2023-04-30T16:09:19.925Z,4
2023-04-30T16:14:36.797Z,4
2023-04-30T16:19:52.730Z,3
2023-04-30T16:25:08.868Z,4
2023-04-30T16:30:25.194Z,3
2023-04-30T16:35:41.542Z,4
2023-04-30T16:40:57.894Z,4
2023-04-30T16:46:14.327Z,3
2023-04-30T16:51:30.608Z,3
2023-04-30T16:56:46.934Z,4
2023-04-30T17:02:03.266Z,3
2023-04-30T17:07:19.617Z,3
2023-04-30T17:12:35.934Z,4
2023-04-30T17:17:52.368Z,4
2023-04-30T17:23:08.710Z,4
2023-04-30T17:28:25.597Z,3
2023-04-30T17:33:43.010Z,3
2023-04-30T17:38:58.276Z,3
2023-04-30T17:44:14.631Z,4
2023-04-30T17:49:30.956Z,3
2023-04-30T17:54:47.326Z,4
2023-04-30T18:00:03.646Z,4
2023-04-30T18:05:20.024Z,4
2023-04-30T18:10:36.352Z,5
2023-04-30T18:15:53.135Z,24
2023-04-30T18:21:09.438Z,7
2023-04-30T18:26:25.789Z,6
2023-04-30T18:31:42.299Z,4
2023-04-30T18:36:58.468Z,11
2023-04-30T18:42:14.878Z,11
2023-04-30T18:47:31.253Z,8
2023-04-30T18:52:47.554Z,7
2023-04-30T18:58:03.903Z,5
2023-04-30T19:03:20.342Z,7
2023-04-30T19:08:36.606Z,8
2023-04-30T19:13:52.967Z,8
2023-04-30T19:19:09.341Z,11
2023-04-30T19:24:25.720Z,13
2023-04-30T19:29:42.094Z,14
2023-04-30T19:34:58.421Z,16
2023-04-30T19:40:14.775Z,11
2023-04-30T19:45:31.927Z,17
2023-04-30T19:50:48.307Z,21
2023-04-30T19:56:04.697Z,20
2023-04-30T20:01:21.142Z,21
2023-04-30T20:06:37.477Z,21
2023-04-30T20:11:53.839Z,24
2023-04-30T20:17:10.840Z,32
2023-04-30T20:22:27.289Z,32
2023-04-30T20:27:43.785Z,29
2023-04-30T20:33:00.166Z,21
2023-04-30T20:38:19.663Z,20
2023-04-30T20:43:32.826Z,20
2023-04-30T20:48:49.212Z,16
2023-04-30T20:54:05.588Z,14
2023-04-30T20:59:21.922Z,15
2023-04-30T21:04:38.316Z,23
2023-04-30T21:09:54.946Z,16
2023-04-30T21:15:11.059Z,16
2023-04-30T21:20:27.393Z,12
2023-04-30T21:25:43.781Z,17
2023-04-30T21:31:00.263Z,13
2023-04-30T21:36:16.568Z,14
2023-04-30T21:41:33.642Z,14
2023-04-30T21:46:50.260Z,16
2023-04-30T21:52:06.387Z,12
2023-04-30T21:57:22.771Z,12
2023-04-30T22:02:39.286Z,14
2023-04-30T22:07:55.527Z,14
2023-04-30T22:13:11.869Z,10
2023-04-30T22:18:28.243Z,12
2023-04-30T22:23:44.616Z,13
2023-04-30T22:29:01.168Z,11
2023-04-30T22:34:17.335Z,14
2023-04-30T22:39:33.703Z,11
2023-04-30T22:44:50.064Z,11
2023-04-30T22:50:06.441Z,12
2023-04-30T22:55:22.793Z,11
2023-04-30T23:00:39.226Z,12
2023-04-30T23:05:55.645Z,11
2023-04-30T23:11:12.076Z,10
2023-04-30T23:16:28.452Z,10
2023-04-30T23:21:44.809Z,11
2023-04-30T23:27:01.168Z,12
2023-04-30T23:32:17.963Z,12
2023-04-30T23:37:33.888Z,14
2023-04-30T23:42:50.250Z,10
2023-04-30T23:48:06.695Z,12
2023-04-30T23:53:22.983Z,12
2023-04-30T23:58:39.353Z,12
